sensor_id;sensor_type;location;lat;lon;timestamp;P1;durP1;ratioP1;P2;durP2;ratioP2
18881;SDS011;9573;50.948;11.600;2023-05-10T00:00:38;10.83;;;4.40;;
18881;SDS011;9573;50.948;11.600;2023-05-10T00:03:06;12.77;;;4.13;;
18881;SDS011;9573;50.948;11.600;2023-05-10T00:05:33;12.10;;;4.30;;
18881;SDS011;9573;50.948;11.600;2023-05-10T00:08:00;12.83;;;3.93;;
18881;SDS011;9573;50.948;11.600;2023-05-10T00:10:27;9.87;;;4.07;;
18881;SDS011;9573;50.948;11.600;2023-05-10T00:12:55;10.80;;;4.00;;
18881;SDS011;9573;50.948;11.600;2023-05-10T00:15:22;10.47;;;4.10;;
18881;SDS011;9573;50.948;11.600;2023-05-10T00:17:49;10.80;;;4.30;;
18881;SDS011;9573;50.948;11.600;2023-05-10T00:20:17;8.23;;;3.90;;
18881;SDS011;9573;50.948;11.600;2023-05-10T00:22:44;11.10;;;3.83;;
18881;SDS011;9573;50.948;11.600;2023-05-10T00:25:11;11.10;;;3.97;;
18881;SDS011;9573;50.948;11.600;2023-05-10T00:27:38;7.40;;;4.10;;
18881;SDS011;9573;50.948;11.600;2023-05-10T00:30:06;9.10;;;3.80;;
18881;SDS011;9573;50.948;11.600;2023-05-10T00:32:34;8.67;;;4.10;;
18881;SDS011;9573;50.948;11.600;2023-05-10T00:35:01;9.70;;;4.10;;
18881;SDS011;9573;50.948;11.600;2023-05-10T00:37:30;8.13;;;3.90;;
18881;SDS011;9573;50.948;11.600;2023-05-10T00:39:57;10.67;;;4.17;;
18881;SDS011;9573;50.948;11.600;2023-05-10T00:42:24;11.30;;;4.00;;
18881;SDS011;9573;50.948;11.600;2023-05-10T00:44:51;10.50;;;3.93;;
18881;SDS011;9573;50.948;11.600;2023-05-10T00:47:18;11.97;;;4.20;;
18881;SDS011;9573;50.948;11.600;2023-05-10T00:49:45;9.50;;;3.97;;
18881;SDS011;9573;50.948;11.600;2023-05-10T00:52:12;10.57;;;4.13;;
18881;SDS011;9573;50.948;11.600;2023-05-10T00:54:41;9.93;;;3.83;;
18881;SDS011;9573;50.948;11.600;2023-05-10T00:57:08;10.13;;;4.10;;
18881;SDS011;9573;50.948;11.600;2023-05-10T00:59:35;7.47;;;3.90;;
18881;SDS011;9573;50.948;11.600;2023-05-10T01:02:02;10.50;;;4.40;;
18881;SDS011;9573;50.948;11.600;2023-05-10T01:04:31;7.83;;;3.90;;
18881;SDS011;9573;50.948;11.600;2023-05-10T01:06:58;8.80;;;3.83;;
18881;SDS011;9573;50.948;11.600;2023-05-10T01:09:25;10.53;;;4.20;;
18881;SDS011;9573;50.948;11.600;2023-05-10T01:11:53;10.40;;;4.30;;
18881;SDS011;9573;50.948;11.600;2023-05-10T01:14:21;9.37;;;3.97;;
18881;SDS011;9573;50.948;11.600;2023-05-10T01:16:48;9.17;;;4.30;;
18881;SDS011;9573;50.948;11.600;2023-05-10T01:19:17;11.20;;;4.10;;
18881;SDS011;9573;50.948;11.600;2023-05-10T01:21:49;18.07;;;4.30;;
18881;SDS011;9573;50.948;11.600;2023-05-10T01:27:44;12.07;;;4.27;;
18881;SDS011;9573;50.948;11.600;2023-05-10T01:33:37;8.93;;;3.93;;
18881;SDS011;9573;50.948;11.600;2023-05-10T01:36:12;9.47;;;4.20;;
18881;SDS011;9573;50.948;11.600;2023-05-10T01:38:51;8.47;;;4.10;;
18881;SDS011;9573;50.948;11.600;2023-05-10T01:41:28;12.67;;;4.00;;
18881;SDS011;9573;50.948;11.600;2023-05-10T01:44:06;9.60;;;4.00;;
18881;SDS011;9573;50.948;11.600;2023-05-10T01:46:43;8.77;;;4.17;;
18881;SDS011;9573;50.948;11.600;2023-05-10T01:49:20;8.23;;;3.67;;
18881;SDS011;9573;50.948;11.600;2023-05-10T01:51:52;11.93;;;4.10;;
18881;SDS011;9573;50.948;11.600;2023-05-10T01:54:25;8.60;;;4.10;;
18881;SDS011;9573;50.948;11.600;2023-05-10T01:56:55;8.77;;;4.07;;
18881;SDS011;9573;50.948;11.600;2023-05-10T01:59:29;9.03;;;3.87;;
18881;SDS011;9573;50.948;11.600;2023-05-10T02:02:01;10.00;;;4.17;;
18881;SDS011;9573;50.948;11.600;2023-05-10T02:04:30;9.43;;;4.20;;
18881;SDS011;9573;50.948;11.600;2023-05-10T02:06:59;8.93;;;4.10;;
18881;SDS011;9573;50.948;11.600;2023-05-10T02:09:26;10.37;;;4.00;;
18881;SDS011;9573;50.948;11.600;2023-05-10T02:11:56;10.93;;;4.10;;
18881;SDS011;9573;50.948;11.600;2023-05-10T02:14:26;10.23;;;4.00;;
18881;SDS011;9573;50.948;11.600;2023-05-10T02:16:54;9.00;;;3.90;;
18881;SDS011;9573;50.948;11.600;2023-05-10T02:19:22;8.80;;;4.10;;
18881;SDS011;9573;50.948;11.600;2023-05-10T02:21:52;9.40;;;3.90;;
18881;SDS011;9573;50.948;11.600;2023-05-10T02:24:20;11.10;;;3.90;;
18881;SDS011;9573;50.948;11.600;2023-05-10T02:26:50;8.77;;;4.10;;
18881;SDS011;9573;50.948;11.600;2023-05-10T02:29:20;13.63;;;4.50;;
18881;SDS011;9573;50.948;11.600;2023-05-10T02:31:49;10.83;;;3.87;;
18881;SDS011;9573;50.948;11.600;2023-05-10T02:34:19;9.60;;;4.13;;
18881;SDS011;9573;50.948;11.600;2023-05-10T02:36:47;11.27;;;4.00;;
18881;SDS011;9573;50.948;11.600;2023-05-10T02:39:17;12.20;;;4.80;;
18881;SDS011;9573;50.948;11.600;2023-05-10T02:41:47;10.07;;;4.10;;
18881;SDS011;9573;50.948;11.600;2023-05-10T02:44:17;12.53;;;4.40;;
18881;SDS011;9573;50.948;11.600;2023-05-10T02:46:46;11.90;;;4.57;;
18881;SDS011;9573;50.948;11.600;2023-05-10T02:49:14;12.83;;;4.20;;
18881;SDS011;9573;50.948;11.600;2023-05-10T02:51:43;10.27;;;3.97;;
18881;SDS011;9573;50.948;11.600;2023-05-10T02:54:18;7.73;;;3.97;;
18881;SDS011;9573;50.948;11.600;2023-05-10T02:56:47;9.97;;;4.17;;
18881;SDS011;9573;50.948;11.600;2023-05-10T02:59:17;14.00;;;4.30;;
18881;SDS011;9573;50.948;11.600;2023-05-10T03:01:44;8.23;;;4.23;;
18881;SDS011;9573;50.948;11.600;2023-05-10T03:04:11;13.97;;;4.50;;
18881;SDS011;9573;50.948;11.600;2023-05-10T03:06:39;9.97;;;4.30;;
18881;SDS011;9573;50.948;11.600;2023-05-10T03:09:06;12.40;;;4.40;;
18881;SDS011;9573;50.948;11.600;2023-05-10T03:11:39;9.20;;;3.90;;
18881;SDS011;9573;50.948;11.600;2023-05-10T03:14:21;13.93;;;4.13;;
18881;SDS011;9573;50.948;11.600;2023-05-10T03:16:58;13.07;;;4.57;;
18881;SDS011;9573;50.948;11.600;2023-05-10T03:19:35;14.73;;;4.83;;
18881;SDS011;9573;50.948;11.600;2023-05-10T03:22:10;18.50;;;4.60;;
18881;SDS011;9573;50.948;11.600;2023-05-10T03:24:39;16.80;;;4.60;;
18881;SDS011;9573;50.948;11.600;2023-05-10T03:27:09;11.37;;;4.00;;
18881;SDS011;9573;50.948;11.600;2023-05-10T03:29:38;14.40;;;4.50;;
18881;SDS011;9573;50.948;11.600;2023-05-10T03:32:05;9.50;;;4.27;;
18881;SDS011;9573;50.948;11.600;2023-05-10T03:34:33;23.80;;;4.70;;
18881;SDS011;9573;50.948;11.600;2023-05-10T03:37:01;10.63;;;4.47;;
18881;SDS011;9573;50.948;11.600;2023-05-10T03:39:28;14.30;;;4.43;;
18881;SDS011;9573;50.948;11.600;2023-05-10T03:41:55;12.43;;;4.33;;
18881;SDS011;9573;50.948;11.600;2023-05-10T03:44:23;10.67;;;4.00;;
18881;SDS011;9573;50.948;11.600;2023-05-10T03:46:50;11.63;;;4.60;;
18881;SDS011;9573;50.948;11.600;2023-05-10T03:49:17;10.30;;;4.43;;
18881;SDS011;9573;50.948;11.600;2023-05-10T03:51:44;10.77;;;4.23;;
18881;SDS011;9573;50.948;11.600;2023-05-10T03:54:11;16.50;;;4.80;;
18881;SDS011;9573;50.948;11.600;2023-05-10T03:56:39;10.67;;;4.90;;
18881;SDS011;9573;50.948;11.600;2023-05-10T03:59:06;12.40;;;4.43;;
18881;SDS011;9573;50.948;11.600;2023-05-10T04:01:35;15.77;;;5.03;;
18881;SDS011;9573;50.948;11.600;2023-05-10T04:04:02;10.20;;;4.40;;
18881;SDS011;9573;50.948;11.600;2023-05-10T04:06:29;15.50;;;5.53;;
18881;SDS011;9573;50.948;11.600;2023-05-10T04:08:56;15.57;;;4.77;;
18881;SDS011;9573;50.948;11.600;2023-05-10T04:11:24;14.53;;;4.53;;
18881;SDS011;9573;50.948;11.600;2023-05-10T04:13:52;20.37;;;5.23;;
18881;SDS011;9573;50.948;11.600;2023-05-10T04:16:19;15.20;;;4.70;;
18881;SDS011;9573;50.948;11.600;2023-05-10T04:18:48;13.27;;;5.00;;
18881;SDS011;9573;50.948;11.600;2023-05-10T04:21:15;19.50;;;4.53;;
18881;SDS011;9573;50.948;11.600;2023-05-10T04:23:42;13.80;;;4.67;;
18881;SDS011;9573;50.948;11.600;2023-05-10T04:26:09;12.03;;;4.53;;
18881;SDS011;9573;50.948;11.600;2023-05-10T04:28:37;10.67;;;4.43;;
18881;SDS011;9573;50.948;11.600;2023-05-10T04:31:04;15.63;;;4.70;;
18881;SDS011;9573;50.948;11.600;2023-05-10T04:33:32;15.87;;;4.63;;
18881;SDS011;9573;50.948;11.600;2023-05-10T04:36:01;10.10;;;4.37;;
18881;SDS011;9573;50.948;11.600;2023-05-10T04:38:30;12.70;;;4.57;;
18881;SDS011;9573;50.948;11.600;2023-05-10T04:41:03;16.23;;;5.00;;
18881;SDS011;9573;50.948;11.600;2023-05-10T04:43:32;12.90;;;4.50;;
18881;SDS011;9573;50.948;11.600;2023-05-10T04:45:59;12.63;;;5.10;;
18881;SDS011;9573;50.948;11.600;2023-05-10T04:48:26;12.90;;;5.20;;
18881;SDS011;9573;50.948;11.600;2023-05-10T04:50:53;15.90;;;5.87;;
18881;SDS011;9573;50.948;11.600;2023-05-10T04:53:21;15.67;;;4.90;;
18881;SDS011;9573;50.948;11.600;2023-05-10T04:55:49;14.93;;;4.73;;
18881;SDS011;9573;50.948;11.600;2023-05-10T04:58:16;14.40;;;5.53;;
18881;SDS011;9573;50.948;11.600;2023-05-10T05:00:43;10.33;;;5.00;;
18881;SDS011;9573;50.948;11.600;2023-05-10T05:03:10;10.93;;;4.10;;
18881;SDS011;9573;50.948;11.600;2023-05-10T05:05:37;11.43;;;4.50;;
18881;SDS011;9573;50.948;11.600;2023-05-10T05:08:04;12.27;;;4.80;;
18881;SDS011;9573;50.948;11.600;2023-05-10T05:10:32;19.60;;;6.23;;
18881;SDS011;9573;50.948;11.600;2023-05-10T05:12:59;10.97;;;4.47;;
18881;SDS011;9573;50.948;11.600;2023-05-10T05:15:27;15.90;;;5.50;;
18881;SDS011;9573;50.948;11.600;2023-05-10T05:17:55;12.63;;;5.00;;
18881;SDS011;9573;50.948;11.600;2023-05-10T05:20:22;16.50;;;5.17;;
18881;SDS011;9573;50.948;11.600;2023-05-10T05:22:49;11.87;;;4.70;;
18881;SDS011;9573;50.948;11.600;2023-05-10T05:25:16;17.03;;;4.73;;
18881;SDS011;9573;50.948;11.600;2023-05-10T05:27:45;19.60;;;5.20;;
18881;SDS011;9573;50.948;11.600;2023-05-10T05:30:12;14.63;;;4.63;;
18881;SDS011;9573;50.948;11.600;2023-05-10T05:32:39;14.77;;;4.80;;
18881;SDS011;9573;50.948;11.600;2023-05-10T05:35:06;24.27;;;5.77;;
18881;SDS011;9573;50.948;11.600;2023-05-10T05:37:34;9.60;;;4.17;;
18881;SDS011;9573;50.948;11.600;2023-05-10T05:40:02;15.97;;;4.73;;
18881;SDS011;9573;50.948;11.600;2023-05-10T05:42:30;15.33;;;4.80;;
18881;SDS011;9573;50.948;11.600;2023-05-10T05:44:59;16.70;;;5.80;;
18881;SDS011;9573;50.948;11.600;2023-05-10T05:47:26;20.00;;;6.80;;
18881;SDS011;9573;50.948;11.600;2023-05-10T05:49:53;23.53;;;7.37;;
18881;SDS011;9573;50.948;11.600;2023-05-10T05:52:20;19.97;;;5.03;;
18881;SDS011;9573;50.948;11.600;2023-05-10T05:54:47;20.87;;;6.93;;
18881;SDS011;9573;50.948;11.600;2023-05-10T05:57:14;16.50;;;5.13;;
18881;SDS011;9573;50.948;11.600;2023-05-10T05:59:41;24.73;;;8.53;;
18881;SDS011;9573;50.948;11.600;2023-05-10T06:02:10;14.23;;;5.13;;
18881;SDS011;9573;50.948;11.600;2023-05-10T06:04:37;13.43;;;4.60;;
18881;SDS011;9573;50.948;11.600;2023-05-10T06:07:05;11.37;;;4.57;;
18881;SDS011;9573;50.948;11.600;2023-05-10T06:09:32;9.27;;;4.80;;
18881;SDS011;9573;50.948;11.600;2023-05-10T06:11:59;16.03;;;5.10;;
18881;SDS011;9573;50.948;11.600;2023-05-10T06:14:26;13.27;;;4.97;;
18881;SDS011;9573;50.948;11.600;2023-05-10T06:16:53;14.83;;;5.97;;
18881;SDS011;9573;50.948;11.600;2023-05-10T06:19:22;19.80;;;9.57;;
18881;SDS011;9573;50.948;11.600;2023-05-10T06:21:49;15.77;;;6.07;;
18881;SDS011;9573;50.948;11.600;2023-05-10T06:24:16;14.77;;;4.93;;
18881;SDS011;9573;50.948;11.600;2023-05-10T06:26:43;22.43;;;5.63;;
18881;SDS011;9573;50.948;11.600;2023-05-10T06:29:10;14.80;;;5.83;;
18881;SDS011;9573;50.948;11.600;2023-05-10T06:31:37;25.23;;;8.73;;
18881;SDS011;9573;50.948;11.600;2023-05-10T06:34:04;22.50;;;8.30;;
18881;SDS011;9573;50.948;11.600;2023-05-10T06:36:34;12.03;;;5.07;;
18881;SDS011;9573;50.948;11.600;2023-05-10T06:39:01;15.03;;;6.43;;
18881;SDS011;9573;50.948;11.600;2023-05-10T06:41:28;11.53;;;5.13;;
18881;SDS011;9573;50.948;11.600;2023-05-10T06:43:56;13.67;;;5.13;;
18881;SDS011;9573;50.948;11.600;2023-05-10T06:46:23;14.87;;;6.10;;
18881;SDS011;9573;50.948;11.600;2023-05-10T06:48:50;27.93;;;8.23;;
18881;SDS011;9573;50.948;11.600;2023-05-10T06:51:17;29.07;;;9.30;;
18881;SDS011;9573;50.948;11.600;2023-05-10T06:53:47;22.30;;;5.97;;
18881;SDS011;9573;50.948;11.600;2023-05-10T06:56:14;19.80;;;5.70;;
18881;SDS011;9573;50.948;11.600;2023-05-10T06:58:41;22.17;;;7.87;;
18881;SDS011;9573;50.948;11.600;2023-05-10T07:01:08;18.83;;;6.97;;
18881;SDS011;9573;50.948;11.600;2023-05-10T07:03:35;22.27;;;11.17;;
18881;SDS011;9573;50.948;11.600;2023-05-10T07:06:03;24.67;;;11.00;;
18881;SDS011;9573;50.948;11.600;2023-05-10T07:08:32;13.40;;;5.43;;
18881;SDS011;9573;50.948;11.600;2023-05-10T07:11:01;14.27;;;5.70;;
18881;SDS011;9573;50.948;11.600;2023-05-10T07:13:29;14.83;;;5.90;;
18881;SDS011;9573;50.948;11.600;2023-05-10T07:15:57;14.80;;;5.83;;
18881;SDS011;9573;50.948;11.600;2023-05-10T07:18:24;13.20;;;5.53;;
18881;SDS011;9573;50.948;11.600;2023-05-10T07:20:51;14.17;;;5.90;;
18881;SDS011;9573;50.948;11.600;2023-05-10T07:23:19;20.07;;;6.77;;
18881;SDS011;9573;50.948;11.600;2023-05-10T07:25:46;14.73;;;6.10;;
18881;SDS011;9573;50.948;11.600;2023-05-10T07:28:15;14.87;;;5.80;;
18881;SDS011;9573;50.948;11.600;2023-05-10T07:30:42;13.00;;;5.83;;
18881;SDS011;9573;50.948;11.600;2023-05-10T07:33:10;15.50;;;6.07;;
18881;SDS011;9573;50.948;11.600;2023-05-10T07:35:40;11.47;;;5.30;;
18881;SDS011;9573;50.948;11.600;2023-05-10T07:38:08;18.23;;;6.10;;
18881;SDS011;9573;50.948;11.600;2023-05-10T07:40:36;13.10;;;5.37;;
18881;SDS011;9573;50.948;11.600;2023-05-10T07:43:03;12.57;;;5.60;;
18881;SDS011;9573;50.948;11.600;2023-05-10T07:45:32;15.43;;;6.10;;
18881;SDS011;9573;50.948;11.600;2023-05-10T07:48:00;18.07;;;7.33;;
18881;SDS011;9573;50.948;11.600;2023-05-10T07:50:27;13.67;;;5.60;;
18881;SDS011;9573;50.948;11.600;2023-05-10T07:52:54;13.27;;;5.13;;
18881;SDS011;9573;50.948;11.600;2023-05-10T07:55:21;18.90;;;7.50;;
18881;SDS011;9573;50.948;11.600;2023-05-10T07:57:48;15.03;;;6.27;;
18881;SDS011;9573;50.948;11.600;2023-05-10T08:00:17;19.93;;;6.50;;
18881;SDS011;9573;50.948;11.600;2023-05-10T08:02:47;12.83;;;5.60;;
18881;SDS011;9573;50.948;11.600;2023-05-10T08:05:14;13.57;;;5.93;;
18881;SDS011;9573;50.948;11.600;2023-05-10T08:07:41;11.10;;;5.37;;
18881;SDS011;9573;50.948;11.600;2023-05-10T08:10:08;14.27;;;6.07;;
18881;SDS011;9573;50.948;11.600;2023-05-10T08:12:37;16.37;;;5.97;;
18881;SDS011;9573;50.948;11.600;2023-05-10T08:15:05;13.47;;;5.47;;
18881;SDS011;9573;50.948;11.600;2023-05-10T08:17:33;15.90;;;6.03;;
18881;SDS011;9573;50.948;11.600;2023-05-10T08:20:01;12.50;;;5.73;;
18881;SDS011;9573;50.948;11.600;2023-05-10T08:22:29;11.33;;;5.23;;
18881;SDS011;9573;50.948;11.600;2023-05-10T08:24:56;12.50;;;5.50;;
18881;SDS011;9573;50.948;11.600;2023-05-10T08:27:23;13.80;;;5.70;;
18881;SDS011;9573;50.948;11.600;2023-05-10T08:29:50;12.93;;;5.80;;
18881;SDS011;9573;50.948;11.600;2023-05-10T08:32:17;19.40;;;9.13;;
18881;SDS011;9573;50.948;11.600;2023-05-10T08:34:44;15.20;;;7.23;;
18881;SDS011;9573;50.948;11.600;2023-05-10T08:37:12;14.40;;;6.73;;
18881;SDS011;9573;50.948;11.600;2023-05-10T08:39:39;13.57;;;5.73;;
18881;SDS011;9573;50.948;11.600;2023-05-10T08:42:06;11.77;;;5.60;;
18881;SDS011;9573;50.948;11.600;2023-05-10T08:44:35;11.90;;;5.40;;
18881;SDS011;9573;50.948;11.600;2023-05-10T08:47:04;17.27;;;6.23;;
18881;SDS011;9573;50.948;11.600;2023-05-10T08:49:32;13.53;;;5.77;;
18881;SDS011;9573;50.948;11.600;2023-05-10T08:52:02;15.17;;;6.20;;
18881;SDS011;9573;50.948;11.600;2023-05-10T08:54:32;13.43;;;5.80;;
18881;SDS011;9573;50.948;11.600;2023-05-10T08:57:00;17.50;;;7.07;;
18881;SDS011;9573;50.948;11.600;2023-05-10T08:59:27;11.00;;;5.50;;
18881;SDS011;9573;50.948;11.600;2023-05-10T09:01:55;12.60;;;5.40;;
18881;SDS011;9573;50.948;11.600;2023-05-10T09:04:25;23.83;;;11.37;;
18881;SDS011;9573;50.948;11.600;2023-05-10T09:06:52;16.83;;;6.63;;
18881;SDS011;9573;50.948;11.600;2023-05-10T09:09:20;12.30;;;5.63;;
18881;SDS011;9573;50.948;11.600;2023-05-10T09:11:49;13.13;;;5.20;;
18881;SDS011;9573;50.948;11.600;2023-05-10T09:14:16;13.23;;;5.60;;
18881;SDS011;9573;50.948;11.600;2023-05-10T09:16:44;14.93;;;6.43;;
18881;SDS011;9573;50.948;11.600;2023-05-10T09:19:12;14.90;;;6.50;;
18881;SDS011;9573;50.948;11.600;2023-05-10T09:21:39;11.27;;;5.17;;
18881;SDS011;9573;50.948;11.600;2023-05-10T09:24:07;10.67;;;5.10;;
18881;SDS011;9573;50.948;11.600;2023-05-10T09:26:35;20.10;;;6.50;;
18881;SDS011;9573;50.948;11.600;2023-05-10T09:29:07;10.97;;;5.10;;
18881;SDS011;9573;50.948;11.600;2023-05-10T09:31:44;14.87;;;6.87;;
18881;SDS011;9573;50.948;11.600;2023-05-10T09:34:16;9.43;;;4.90;;
18881;SDS011;9573;50.948;11.600;2023-05-10T09:36:52;10.53;;;5.10;;
18881;SDS011;9573;50.948;11.600;2023-05-10T09:39:32;10.90;;;5.00;;
18881;SDS011;9573;50.948;11.600;2023-05-10T09:42:02;10.00;;;4.87;;
18881;SDS011;9573;50.948;11.600;2023-05-10T09:44:32;9.90;;;5.00;;
18881;SDS011;9573;50.948;11.600;2023-05-10T09:47:00;9.30;;;4.87;;
18881;SDS011;9573;50.948;11.600;2023-05-10T09:49:28;11.37;;;5.17;;
18881;SDS011;9573;50.948;11.600;2023-05-10T09:51:59;11.33;;;5.10;;
18881;SDS011;9573;50.948;11.600;2023-05-10T09:54:28;12.53;;;4.90;;
18881;SDS011;9573;50.948;11.600;2023-05-10T09:56:55;11.03;;;5.10;;
18881;SDS011;9573;50.948;11.600;2023-05-10T09:59:24;10.77;;;4.80;;
18881;SDS011;9573;50.948;11.600;2023-05-10T10:01:53;10.13;;;4.77;;
18881;SDS011;9573;50.948;11.600;2023-05-10T10:04:23;11.40;;;4.60;;
18881;SDS011;9573;50.948;11.600;2023-05-10T10:07:00;13.70;;;5.00;;
18881;SDS011;9573;50.948;11.600;2023-05-10T10:09:28;9.37;;;4.57;;
18881;SDS011;9573;50.948;11.600;2023-05-10T10:11:56;10.73;;;4.80;;
18881;SDS011;9573;50.948;11.600;2023-05-10T10:14:23;9.73;;;4.47;;
18881;SDS011;9573;50.948;11.600;2023-05-10T10:16:51;8.87;;;4.70;;
18881;SDS011;9573;50.948;11.600;2023-05-10T10:19:20;10.13;;;4.60;;
18881;SDS011;9573;50.948;11.600;2023-05-10T10:21:49;7.07;;;4.23;;
18881;SDS011;9573;50.948;11.600;2023-05-10T10:24:16;13.10;;;5.03;;
18881;SDS011;9573;50.948;11.600;2023-05-10T10:26:43;12.67;;;5.93;;
18881;SDS011;9573;50.948;11.600;2023-05-10T10:29:16;7.23;;;4.17;;
18881;SDS011;9573;50.948;11.600;2023-05-10T10:31:52;13.37;;;6.27;;
18881;SDS011;9573;50.948;11.600;2023-05-10T10:34:29;6.47;;;3.90;;
18881;SDS011;9573;50.948;11.600;2023-05-10T10:36:57;11.83;;;4.50;;
18881;SDS011;9573;50.948;11.600;2023-05-10T10:39:31;10.37;;;5.13;;
18881;SDS011;9573;50.948;11.600;2023-05-10T10:42:01;7.07;;;4.00;;
18881;SDS011;9573;50.948;11.600;2023-05-10T10:44:36;7.93;;;3.90;;
18881;SDS011;9573;50.948;11.600;2023-05-10T10:47:09;9.07;;;4.93;;
18881;SDS011;9573;50.948;11.600;2023-05-10T10:50:04;6.30;;;3.70;;
18881;SDS011;9573;50.948;11.600;2023-05-10T10:52:33;11.63;;;4.30;;
18881;SDS011;9573;50.948;11.600;2023-05-10T10:55:02;7.37;;;3.90;;
18881;SDS011;9573;50.948;11.600;2023-05-10T10:57:35;9.80;;;4.37;;
18881;SDS011;9573;50.948;11.600;2023-05-10T11:00:18;17.47;;;7.93;;
18881;SDS011;9573;50.948;11.600;2023-05-10T11:02:53;9.87;;;4.30;;
18881;SDS011;9573;50.948;11.600;2023-05-10T11:05:33;17.93;;;7.00;;
18881;SDS011;9573;50.948;11.600;2023-05-10T11:08:14;12.83;;;4.53;;
18881;SDS011;9573;50.948;11.600;2023-05-10T11:11:01;8.93;;;3.90;;
18881;SDS011;9573;50.948;11.600;2023-05-10T11:13:32;17.30;;;4.37;;
18881;SDS011;9573;50.948;11.600;2023-05-10T11:16:10;33.90;;;14.70;;
18881;SDS011;9573;50.948;11.600;2023-05-10T11:18:41;10.83;;;4.90;;
18881;SDS011;9573;50.948;11.600;2023-05-10T11:21:26;19.13;;;5.53;;
18881;SDS011;9573;50.948;11.600;2023-05-10T11:23:54;14.77;;;5.20;;
18881;SDS011;9573;50.948;11.600;2023-05-10T11:26:23;41.13;;;13.13;;
18881;SDS011;9573;50.948;11.600;2023-05-10T11:28:51;41.67;;;15.80;;
18881;SDS011;9573;50.948;11.600;2023-05-10T11:31:21;16.00;;;5.27;;
18881;SDS011;9573;50.948;11.600;2023-05-10T11:33:53;3.23;;;1.53;;
18881;SDS011;9573;50.948;11.600;2023-05-10T11:36:23;24.67;;;10.27;;
18881;SDS011;9573;50.948;11.600;2023-05-10T11:38:52;18.50;;;7.50;;
18881;SDS011;9573;50.948;11.600;2023-05-10T11:41:21;3.13;;;1.57;;
18881;SDS011;9573;50.948;11.600;2023-05-10T11:43:50;1.47;;;1.37;;
18881;SDS011;9573;50.948;11.600;2023-05-10T11:46:20;1.17;;;1.07;;
18881;SDS011;9573;50.948;11.600;2023-05-10T11:48:49;3.37;;;1.03;;
18881;SDS011;9573;50.948;11.600;2023-05-10T11:51:21;4.63;;;1.57;;
18881;SDS011;9573;50.948;11.600;2023-05-10T11:53:50;1.60;;;1.50;;
18881;SDS011;9573;50.948;11.600;2023-05-10T11:56:20;5.03;;;1.60;;
18881;SDS011;9573;50.948;11.600;2023-05-10T11:58:52;3.47;;;1.67;;
18881;SDS011;9573;50.948;11.600;2023-05-10T12:01:21;6.00;;;1.90;;
18881;SDS011;9573;50.948;11.600;2023-05-10T12:03:48;4.40;;;1.77;;
18881;SDS011;9573;50.948;11.600;2023-05-10T12:06:16;34.00;;;13.73;;
18881;SDS011;9573;50.948;11.600;2023-05-10T12:08:46;3.03;;;1.83;;
18881;SDS011;9573;50.948;11.600;2023-05-10T12:11:17;2.20;;;1.80;;
18881;SDS011;9573;50.948;11.600;2023-05-10T12:13:46;1.70;;;1.60;;
18881;SDS011;9573;50.948;11.600;2023-05-10T12:16:18;2.80;;;1.80;;
18881;SDS011;9573;50.948;11.600;2023-05-10T12:18:47;1.40;;;1.30;;
18881;SDS011;9573;50.948;11.600;2023-05-10T12:21:16;1.77;;;1.30;;
18881;SDS011;9573;50.948;11.600;2023-05-10T12:23:46;1.33;;;1.13;;
18881;SDS011;9573;50.948;11.600;2023-05-10T12:26:15;1.80;;;1.23;;
18881;SDS011;9573;50.948;11.600;2023-05-10T12:28:42;4.30;;;1.27;;
18881;SDS011;9573;50.948;11.600;2023-05-10T12:31:10;7.13;;;1.57;;
18881;SDS011;9573;50.948;11.600;2023-05-10T12:33:37;3.53;;;1.60;;
18881;SDS011;9573;50.948;11.600;2023-05-10T12:36:06;2.23;;;1.40;;
18881;SDS011;9573;50.948;11.600;2023-05-10T12:38:35;1.00;;;1.00;;
18881;SDS011;9573;50.948;11.600;2023-05-10T12:41:06;1.53;;;1.20;;
18881;SDS011;9573;50.948;11.600;2023-05-10T12:43:35;1.53;;;1.30;;
18881;SDS011;9573;50.948;11.600;2023-05-10T12:46:04;4.53;;;1.30;;
18881;SDS011;9573;50.948;11.600;2023-05-10T12:48:33;1.70;;;1.10;;
18881;SDS011;9573;50.948;11.600;2023-05-10T12:51:00;1.63;;;1.13;;
18881;SDS011;9573;50.948;11.600;2023-05-10T12:53:27;8.80;;;1.70;;
18881;SDS011;9573;50.948;11.600;2023-05-10T12:55:54;7.50;;;1.73;;
18881;SDS011;9573;50.948;11.600;2023-05-10T12:58:23;1.47;;;1.37;;
18881;SDS011;9573;50.948;11.600;2023-05-10T13:00:50;4.43;;;1.43;;
18881;SDS011;9573;50.948;11.600;2023-05-10T13:03:17;3.50;;;1.60;;
18881;SDS011;9573;50.948;11.600;2023-05-10T13:05:45;2.57;;;1.40;;
18881;SDS011;9573;50.948;11.600;2023-05-10T13:08:12;3.23;;;1.63;;
18881;SDS011;9573;50.948;11.600;2023-05-10T13:10:39;5.30;;;1.37;;
18881;SDS011;9573;50.948;11.600;2023-05-10T13:13:06;6.57;;;1.47;;
18881;SDS011;9573;50.948;11.600;2023-05-10T13:15:35;6.57;;;2.03;;
18881;SDS011;9573;50.948;11.600;2023-05-10T13:18:02;3.73;;;1.70;;
18881;SDS011;9573;50.948;11.600;2023-05-10T13:20:29;3.07;;;1.67;;
18881;SDS011;9573;50.948;11.600;2023-05-10T13:22:56;3.67;;;1.63;;
18881;SDS011;9573;50.948;11.600;2023-05-10T13:25:23;2.67;;;1.57;;
18881;SDS011;9573;50.948;11.600;2023-05-10T13:27:50;2.57;;;1.70;;
18881;SDS011;9573;50.948;11.600;2023-05-10T13:30:18;5.13;;;2.50;;
18881;SDS011;9573;50.948;11.600;2023-05-10T13:32:46;3.77;;;2.10;;
18881;SDS011;9573;50.948;11.600;2023-05-10T13:35:14;1.90;;;1.70;;
18881;SDS011;9573;50.948;11.600;2023-05-10T13:37:41;1.97;;;1.70;;
18881;SDS011;9573;50.948;11.600;2023-05-10T13:40:08;3.00;;;1.87;;
18881;SDS011;9573;50.948;11.600;2023-05-10T13:42:36;1.87;;;1.73;;
18881;SDS011;9573;50.948;11.600;2023-05-10T13:45:03;3.13;;;1.60;;
18881;SDS011;9573;50.948;11.600;2023-05-10T13:47:31;1.60;;;1.50;;
18881;SDS011;9573;50.948;11.600;2023-05-10T13:50:00;2.70;;;1.50;;
18881;SDS011;9573;50.948;11.600;2023-05-10T13:52:28;3.57;;;1.60;;
18881;SDS011;9573;50.948;11.600;2023-05-10T13:54:55;1.97;;;1.83;;
18881;SDS011;9573;50.948;11.600;2023-05-10T13:57:22;1.30;;;1.20;;
18881;SDS011;9573;50.948;11.600;2023-05-10T13:59:49;2.50;;;1.60;;
18881;SDS011;9573;50.948;11.600;2023-05-10T14:02:18;2.03;;;1.73;;
18881;SDS011;9573;50.948;11.600;2023-05-10T14:04:45;1.70;;;1.60;;
18881;SDS011;9573;50.948;11.600;2023-05-10T14:07:13;2.37;;;1.60;;
18881;SDS011;9573;50.948;11.600;2023-05-10T14:09:40;2.43;;;1.70;;
18881;SDS011;9573;50.948;11.600;2023-05-10T14:12:07;1.53;;;1.43;;
18881;SDS011;9573;50.948;11.600;2023-05-10T14:14:34;5.27;;;1.63;;
18881;SDS011;9573;50.948;11.600;2023-05-10T14:17:01;3.13;;;1.70;;
18881;SDS011;9573;50.948;11.600;2023-05-10T14:19:29;2.13;;;1.50;;
18881;SDS011;9573;50.948;11.600;2023-05-10T14:21:57;1.90;;;1.80;;
18881;SDS011;9573;50.948;11.600;2023-05-10T14:24:26;3.83;;;1.93;;
18881;SDS011;9573;50.948;11.600;2023-05-10T14:26:53;1.93;;;1.70;;
18881;SDS011;9573;50.948;11.600;2023-05-10T14:29:20;2.90;;;1.27;;
18881;SDS011;9573;50.948;11.600;2023-05-10T14:31:47;2.23;;;1.30;;
18881;SDS011;9573;50.948;11.600;2023-05-10T14:34:14;3.73;;;1.60;;
18881;SDS011;9573;50.948;11.600;2023-05-10T14:36:42;3.67;;;1.90;;
18881;SDS011;9573;50.948;11.600;2023-05-10T14:39:09;3.97;;;1.47;;
18881;SDS011;9573;50.948;11.600;2023-05-10T14:41:39;1.83;;;1.13;;
18881;SDS011;9573;50.948;11.600;2023-05-10T14:44:08;4.63;;;1.70;;
18881;SDS011;9573;50.948;11.600;2023-05-10T14:46:35;3.27;;;1.30;;
18881;SDS011;9573;50.948;11.600;2023-05-10T14:49:02;1.20;;;1.13;;
18881;SDS011;9573;50.948;11.600;2023-05-10T14:51:29;2.40;;;1.70;;
18881;SDS011;9573;50.948;11.600;2023-05-10T14:53:56;2.47;;;1.40;;